createdAt,value
2019-06-01T00:01:14.651Z,81.65
2019-06-01T00:03:44.228Z,81.77
2019-06-01T00:06:12.767Z,80.82
2019-06-01T00:08:41.455Z,82.17
2019-06-01T00:11:09.957Z,81.19
2019-06-01T00:13:39.487Z,81.09
2019-06-01T00:16:08.153Z,81.06
2019-06-01T00:18:36.609Z,80.64
2019-06-01T00:21:05.089Z,81.84
2019-06-01T00:23:33.597Z,82.26
2019-06-01T00:26:01.990Z,81.47
2019-06-01T00:28:30.464Z,81.40
2019-06-01T00:30:58.892Z,80.92
2019-06-01T00:33:27.354Z,82.20
2019-06-01T00:35:55.780Z,81.48
2019-06-01T00:38:24.195Z,82.05
2019-06-01T00:40:52.626Z,81.89
2019-06-01T00:43:21.183Z,82.67
2019-06-01T00:45:50.753Z,82.90
2019-06-01T00:48:19.480Z,81.53
2019-06-01T00:50:49.126Z,81.87
2019-06-01T00:53:17.726Z,81.47
2019-06-01T00:55:47.318Z,81.63
2019-06-01T00:58:15.881Z,81.51
2019-06-01T01:00:46.029Z,82.32
2019-06-01T01:03:14.581Z,82.51
2019-06-01T01:05:42.987Z,83.32
2019-06-01T01:08:12.692Z,83.58
2019-06-01T01:10:41.190Z,83.22
2019-06-01T01:13:11.342Z,83.79
2019-06-01T01:15:39.999Z,83.29
2019-06-01T01:18:09.657Z,84.03
2019-06-01T01:20:38.723Z,83.95
2019-06-01T01:23:08.197Z,83.74
2019-06-01T01:25:37.003Z,84.14
2019-06-01T01:28:06.349Z,83.00
2019-06-01T01:30:34.932Z,82.45
2019-06-01T01:33:03.525Z,82.58
2019-06-01T01:35:32.084Z,82.00
2019-06-01T01:38:00.723Z,82.61
2019-06-01T01:40:29.766Z,83.27
2019-06-01T01:42:58.891Z,82.80
2019-06-01T01:45:27.506Z,82.63
2019-06-01T01:47:57.193Z,82.80
2019-06-01T01:50:27.623Z,84.55
2019-06-01T01:52:57.085Z,84.11
2019-06-01T01:55:25.845Z,84.19
2019-06-01T01:57:55.379Z,84.64
2019-06-01T02:00:45.199Z,84.78
2019-06-01T02:03:13.739Z,84.82
2019-06-01T02:05:42.325Z,83.80
2019-06-01T02:08:10.883Z,84.75
2019-06-01T02:10:39.444Z,84.62
2019-06-01T02:13:07.986Z,83.47
2019-06-01T02:15:37.482Z,83.77
2019-06-01T02:18:06.144Z,83.25
2019-06-01T02:20:34.800Z,82.99
2019-06-01T02:23:03.540Z,83.71
2019-06-01T02:25:32.092Z,83.58
2019-06-01T02:28:01.381Z,83.29
2019-06-01T02:30:30.276Z,83.50
2019-06-01T02:33:00.108Z,83.03
2019-06-01T02:35:28.846Z,83.71
2019-06-01T02:37:58.621Z,83.84
2019-06-01T02:40:28.300Z,84.40
2019-06-01T02:42:57.258Z,84.32
2019-06-01T02:45:27.791Z,83.80
2019-06-01T02:47:57.472Z,84.28
2019-06-01T02:50:26.257Z,85.12
2019-06-01T02:52:55.502Z,85.49
2019-06-01T02:55:24.100Z,84.36
2019-06-01T02:57:52.572Z,84.22
2019-06-01T03:00:40.342Z,84.22
2019-06-01T03:03:08.976Z,85.23
2019-06-01T03:05:37.526Z,85.64
2019-06-01T03:08:07.903Z,84.19
2019-06-01T03:10:38.275Z,84.52
2019-06-01T03:13:08.878Z,84.67
2019-06-01T03:15:40.362Z,85.19
2019-06-01T03:18:11.903Z,85.17
2019-06-01T03:20:41.006Z,85.03
2019-06-01T03:23:12.280Z,84.39
2019-06-01T03:25:41.355Z,84.53
2019-06-01T03:28:12.820Z,85.17
2019-06-01T03:30:45.341Z,84.70
2019-06-01T03:33:14.458Z,85.51
2019-06-01T03:35:43.162Z,85.40
2019-06-01T03:38:11.753Z,85.61
2019-06-01T03:40:40.230Z,85.92
2019-06-01T03:43:09.348Z,85.58
2019-06-01T03:45:38.094Z,85.12
2019-06-01T03:48:06.808Z,85.50
2019-06-01T03:50:35.221Z,86.00
2019-06-01T03:53:03.865Z,85.39
2019-06-01T03:55:32.291Z,84.71
2019-06-01T03:58:00.979Z,84.86
2019-06-01T04:00:29.556Z,85.28
2019-06-01T04:02:57.986Z,84.76
2019-06-01T04:05:26.432Z,85.78
2019-06-01T04:07:54.828Z,85.53
2019-06-01T04:10:23.258Z,85.73
2019-06-01T04:12:51.742Z,85.45
2019-06-01T04:15:20.258Z,86.29
2019-06-01T04:17:48.649Z,85.70
2019-06-01T04:20:17.153Z,85.82
2019-06-01T04:22:45.568Z,86.03
2019-06-01T04:25:14.117Z,85.46
2019-06-01T04:27:42.532Z,85.84
2019-06-01T04:30:11.531Z,86.00
2019-06-01T04:32:49.276Z,86.35
2019-06-01T04:35:11.097Z,86.73
2019-06-01T04:37:39.607Z,86.53
2019-06-01T04:40:09.507Z,86.99
2019-06-01T04:42:38.051Z,87.51
2019-06-01T04:45:10.951Z,87.95
2019-06-01T04:47:39.880Z,87.49
2019-06-01T04:50:08.849Z,87.88
2019-06-01T04:52:37.319Z,88.73
2019-06-01T04:55:07.322Z,88.03
2019-06-01T04:57:35.889Z,88.16
2019-06-01T05:00:21.593Z,88.35
2019-06-01T05:02:39.327Z,88.23
2019-06-01T05:05:09.312Z,88.50
2019-06-01T05:07:37.974Z,88.71
2019-06-01T05:10:09.422Z,88.89
2019-06-01T05:12:38.145Z,89.46
2019-06-01T05:15:11.902Z,89.45
2019-06-01T05:17:40.356Z,89.39
2019-06-01T05:20:10.437Z,89.06
2019-06-01T05:22:39.072Z,89.30
2019-06-01T05:25:09.045Z,89.59
2019-06-01T05:27:37.692Z,89.49
2019-06-01T05:30:09.692Z,89.44
2019-06-01T05:32:38.262Z,89.25
2019-06-01T05:35:07.783Z,89.02
2019-06-01T05:37:36.224Z,89.10
2019-06-01T05:40:08.447Z,89.10
2019-06-01T05:42:37.093Z,89.02
2019-06-01T05:45:09.153Z,88.88
2019-06-01T05:47:37.950Z,88.98
2019-06-01T05:50:10.726Z,89.00
2019-06-01T05:52:39.127Z,88.95
2019-06-01T05:55:08.658Z,88.91
2019-06-01T05:57:37.088Z,88.47
2019-06-01T06:00:08.705Z,88.39
2019-06-01T06:02:37.970Z,88.51
2019-06-01T06:05:08.498Z,88.38
2019-06-01T06:07:37.670Z,88.17
2019-06-01T06:10:08.197Z,88.07
2019-06-01T06:12:36.691Z,87.89
2019-06-01T06:15:07.906Z,88.00
2019-06-01T06:17:36.545Z,88.12
2019-06-01T06:20:06.672Z,88.16
2019-06-01T06:22:35.163Z,87.74
2019-06-01T06:25:04.030Z,87.55
2019-06-01T06:27:32.444Z,87.64
2019-06-01T06:30:00.943Z,87.56
2019-06-01T06:32:29.418Z,87.61
2019-06-01T06:34:57.835Z,87.85
2019-06-01T06:37:26.246Z,87.73
2019-06-01T06:39:54.751Z,87.68
2019-06-01T06:42:24.414Z,87.70
2019-06-01T06:44:53.066Z,88.14
2019-06-01T06:47:21.450Z,88.14
2019-06-01T06:49:49.901Z,88.32
2019-06-01T06:52:19.432Z,88.30
2019-06-01T06:54:47.988Z,88.14
2019-06-01T06:57:16.474Z,88.12
2019-06-01T06:59:44.908Z,87.94
2019-06-01T07:02:13.328Z,87.02
2019-06-01T07:04:41.829Z,86.67
2019-06-01T07:07:10.234Z,86.78
2019-06-01T07:09:38.656Z,87.15
2019-06-01T07:12:07.153Z,86.54
2019-06-01T07:14:35.651Z,86.33
2019-06-01T07:17:04.069Z,86.32
2019-06-01T07:19:32.559Z,85.54
2019-06-01T07:22:01.014Z,85.06
2019-06-01T07:24:29.634Z,84.95
2019-06-01T07:26:58.039Z,85.03
2019-06-01T07:29:26.513Z,84.94
2019-06-01T07:31:54.944Z,85.29
2019-06-01T07:34:37.242Z,85.33
2019-06-01T07:36:53.652Z,85.05
2019-06-01T07:39:22.652Z,84.37
2019-06-01T07:41:51.236Z,84.27
2019-06-01T07:44:20.894Z,84.34
2019-06-01T07:46:49.525Z,83.48
2019-06-01T07:49:18.000Z,83.48
2019-06-01T07:51:46.642Z,83.39
2019-06-01T07:54:15.418Z,83.06
2019-06-01T07:56:43.984Z,82.85
2019-06-01T07:59:12.407Z,82.79
2019-06-01T08:01:40.853Z,82.85
2019-06-01T08:04:09.254Z,82.52
2019-06-01T08:06:44.508Z,82.16
2019-06-01T08:09:08.091Z,81.82
2019-06-01T08:11:36.577Z,81.73
2019-06-01T08:14:05.262Z,81.96
2019-06-01T08:16:33.694Z,81.87
2019-06-01T08:19:02.064Z,81.86
2019-06-01T08:21:30.585Z,81.81
2019-06-01T08:23:58.997Z,81.07
2019-06-01T08:26:28.552Z,79.30
2019-06-01T08:28:57.000Z,79.08
2019-06-01T08:31:26.648Z,79.44
2019-06-01T08:33:55.309Z,78.01
2019-06-01T08:36:25.144Z,78.01
2019-06-01T08:38:53.641Z,77.57
2019-06-01T08:41:23.398Z,76.67
2019-06-01T08:43:51.912Z,77.35
2019-06-01T08:46:20.396Z,77.00
2019-06-01T08:48:51.365Z,75.39
2019-06-01T08:51:19.924Z,74.94
2019-06-01T08:53:48.427Z,75.38
2019-06-01T08:56:16.923Z,73.20
2019-06-01T08:58:45.383Z,73.36
2019-06-01T09:01:13.830Z,75.00
2019-06-01T09:03:46.615Z,75.47
2019-06-01T09:06:12.511Z,75.43
2019-06-01T09:08:41.067Z,76.12
2019-06-01T09:11:09.449Z,77.05
2019-06-01T09:13:37.943Z,76.02
2019-06-01T09:16:06.714Z,75.20
2019-06-01T09:18:35.816Z,74.55
2019-06-01T09:21:04.465Z,74.77
2019-06-01T09:23:33.764Z,75.65
2019-06-01T09:26:02.246Z,74.75
2019-06-01T09:28:31.880Z,73.68
2019-06-01T09:31:00.597Z,72.75
2019-06-01T09:33:30.150Z,72.28
2019-06-01T09:35:58.628Z,71.64
2019-06-01T09:38:27.670Z,70.34
2019-06-01T09:40:56.219Z,68.58
2019-06-01T09:43:24.798Z,69.20
2019-06-01T09:45:53.695Z,70.82
2019-06-01T09:48:22.103Z,71.40
2019-06-01T09:50:50.654Z,71.04
2019-06-01T09:53:19.102Z,70.46
2019-06-01T09:55:47.639Z,70.50
2019-06-01T09:58:16.202Z,70.81
2019-06-01T10:00:44.615Z,71.54
2019-06-01T10:03:13.030Z,70.83
2019-06-01T10:05:41.609Z,71.65
2019-06-01T10:08:10.079Z,71.71
2019-06-01T10:10:38.650Z,72.24
2019-06-01T10:13:08.087Z,70.00
2019-06-01T10:15:36.688Z,70.53
2019-06-01T10:18:05.189Z,69.94
2019-06-01T10:20:34.781Z,69.60
2019-06-01T10:23:03.302Z,69.95
2019-06-01T10:25:32.435Z,70.36
2019-06-01T10:28:00.920Z,68.93
2019-06-01T10:30:29.416Z,67.51
2019-06-01T10:32:57.883Z,67.13
2019-06-01T10:35:26.423Z,67.03
2019-06-01T10:37:54.829Z,68.06
2019-06-01T10:40:24.188Z,68.73
2019-06-01T10:42:52.717Z,68.92
2019-06-01T10:45:21.194Z,66.75
2019-06-01T10:47:49.629Z,67.02
2019-06-01T10:50:18.101Z,65.71
2019-06-01T10:52:46.520Z,64.70
2019-06-01T10:55:15.228Z,65.22
2019-06-01T10:57:43.642Z,65.55
2019-06-01T11:00:13.273Z,67.34
2019-06-01T11:02:43.122Z,66.64
2019-06-01T11:05:11.936Z,66.27
2019-06-01T11:07:41.021Z,65.75
2019-06-01T11:10:10.521Z,63.98
2019-06-01T11:12:39.253Z,64.22
2019-06-01T11:15:09.442Z,65.83
2019-06-01T11:17:41.242Z,64.64
2019-06-01T11:20:10.125Z,64.77
2019-06-01T11:22:39.613Z,64.65
2019-06-01T11:25:08.348Z,64.65
2019-06-01T11:27:37.802Z,63.44
2019-06-01T11:30:08.190Z,65.03
2019-06-01T11:32:39.366Z,64.03
2019-06-01T11:35:07.862Z,62.56
2019-06-01T11:37:36.446Z,61.50
2019-06-01T11:40:07.069Z,62.55
2019-06-01T11:42:36.691Z,63.65
2019-06-01T11:45:07.164Z,64.65
2019-06-01T11:47:36.801Z,61.74
2019-06-01T11:50:07.369Z,60.84
2019-06-01T11:52:37.055Z,60.98
2019-06-01T11:55:09.826Z,58.84
2019-06-01T11:57:39.503Z,58.06
2019-06-01T12:00:12.821Z,57.15
2019-06-01T12:02:41.792Z,55.90
2019-06-01T12:05:11.354Z,56.44
2019-06-01T12:07:40.046Z,56.23
2019-06-01T12:10:08.839Z,54.57
2019-06-01T12:12:38.289Z,51.50
2019-06-01T12:15:08.966Z,51.41
2019-06-01T12:17:38.750Z,52.05
2019-06-01T12:20:08.885Z,51.13
2019-06-01T12:22:37.373Z,51.45
2019-06-01T12:25:07.031Z,52.08
2019-06-01T12:27:35.549Z,49.89
2019-06-01T12:30:06.614Z,52.34
2019-06-01T12:32:35.006Z,49.89
2019-06-01T12:35:04.520Z,50.66
2019-06-01T12:37:52.425Z,49.79
2019-06-01T12:40:07.482Z,49.87
2019-06-01T12:42:33.830Z,49.53
2019-06-01T12:45:02.524Z,49.47
2019-06-01T12:47:31.065Z,48.85
2019-06-01T12:49:59.505Z,52.07
2019-06-01T12:52:27.910Z,48.07
2019-06-01T12:54:56.302Z,48.17
2019-06-01T12:57:24.727Z,50.56
2019-06-01T12:59:53.286Z,48.92
2019-06-01T13:02:21.737Z,48.34
2019-06-01T13:04:50.142Z,49.27
2019-06-01T13:07:18.570Z,49.82
2019-06-01T13:09:48.468Z,50.42
2019-06-01T13:12:17.176Z,47.09
2019-06-01T13:14:58.485Z,46.86
2019-06-01T13:17:35.084Z,45.46
2019-06-01T13:20:08.395Z,44.84
2019-06-01T13:22:36.873Z,46.65
2019-06-01T13:25:08.725Z,47.66
2019-06-01T13:27:40.640Z,47.91
2019-06-01T13:30:08.366Z,47.66
2019-06-01T13:32:37.146Z,48.79
2019-06-01T13:35:09.085Z,46.90
2019-06-01T13:37:37.484Z,46.66
2019-06-01T13:40:07.333Z,47.17
2019-06-01T13:42:35.788Z,45.96
2019-06-01T13:45:06.494Z,46.42
2019-06-01T13:47:34.960Z,46.94
2019-06-01T13:50:06.677Z,48.07
2019-06-01T13:52:35.274Z,46.36
2019-06-01T13:55:05.133Z,46.61
2019-06-01T13:57:33.535Z,47.00
2019-06-01T14:00:02.027Z,46.69
2019-06-01T14:02:30.450Z,47.33
2019-06-01T14:04:58.880Z,47.13
2019-06-01T14:07:27.294Z,45.86
2019-06-01T14:09:55.770Z,46.37
2019-06-01T14:12:24.255Z,45.57
2019-06-01T14:14:53.545Z,47.06
2019-06-01T14:17:22.137Z,47.20
2019-06-01T14:19:51.723Z,46.15
2019-06-01T14:22:20.223Z,43.57
2019-06-01T14:25:00.069Z,46.23
2019-06-01T14:27:18.864Z,45.18
2019-06-01T14:29:48.189Z,46.92
2019-06-01T14:32:16.628Z,46.90
2019-06-01T14:34:46.271Z,46.78
2019-06-01T14:37:14.845Z,47.66
2019-06-01T14:39:43.237Z,47.05
2019-06-01T14:42:11.630Z,46.55
2019-06-01T14:44:40.108Z,45.36
2019-06-01T14:47:08.601Z,45.97
2019-06-01T14:49:37.045Z,44.15
2019-06-01T14:52:05.508Z,44.83
2019-06-01T14:54:34.004Z,45.58
2019-06-01T14:57:02.417Z,44.48
2019-06-01T14:59:30.827Z,46.18
2019-06-01T15:01:59.316Z,45.87
2019-06-01T15:04:27.815Z,47.57
2019-06-01T15:06:56.552Z,46.64
2019-06-01T15:09:25.049Z,44.77
2019-06-01T15:11:54.526Z,43.57
2019-06-01T15:14:23.093Z,44.52
2019-06-01T15:16:51.862Z,44.59
2019-06-01T15:19:20.393Z,43.94
2019-06-01T15:21:49.927Z,45.71
2019-06-01T15:24:18.443Z,44.16
2019-06-01T15:26:46.848Z,45.07
2019-06-01T15:29:15.274Z,43.44
2019-06-01T15:31:43.697Z,45.49
2019-06-01T15:34:12.136Z,44.16
2019-06-01T15:36:40.619Z,44.22
2019-06-01T15:39:23.637Z,44.08
2019-06-01T15:41:39.302Z,44.61
2019-06-01T15:44:07.711Z,46.20
2019-06-01T15:46:36.107Z,48.20
2019-06-01T15:49:04.662Z,46.40
2019-06-01T15:51:33.098Z,46.56
2019-06-01T15:54:01.570Z,48.54
2019-06-01T15:56:29.992Z,48.67
2019-06-01T15:58:59.777Z,48.82
2019-06-01T16:01:28.763Z,47.55
2019-06-01T16:03:57.453Z,47.11
2019-06-01T16:06:25.970Z,44.98
2019-06-01T16:08:55.269Z,42.66
2019-06-01T16:11:23.783Z,43.34
2019-06-01T16:13:52.177Z,42.11
2019-06-01T16:16:23.201Z,43.42
2019-06-01T16:18:51.682Z,43.01
2019-06-01T16:21:20.092Z,44.90
2019-06-01T16:23:50.376Z,46.04
2019-06-01T16:26:18.692Z,44.85
2019-06-01T16:28:47.063Z,46.93
2019-06-01T16:31:15.537Z,42.35
2019-06-01T16:33:43.977Z,43.92
2019-06-01T16:36:12.378Z,45.12
2019-06-01T16:38:40.870Z,43.70
2019-06-01T16:41:09.328Z,44.92
2019-06-01T16:43:37.783Z,44.92
2019-06-01T16:46:06.183Z,44.51
2019-06-01T16:48:34.608Z,45.28
2019-06-01T16:51:04.155Z,43.48
2019-06-01T16:53:32.661Z,44.81
2019-06-01T16:56:01.998Z,46.58
2019-06-01T16:58:30.481Z,45.12
2019-06-01T17:00:58.896Z,44.38
2019-06-01T17:03:27.318Z,43.42
2019-06-01T17:05:56.659Z,45.46
2019-06-01T17:08:25.195Z,48.41
2019-06-01T17:10:53.663Z,46.22
2019-06-01T17:13:22.273Z,47.25
2019-06-01T17:15:50.822Z,46.76
2019-06-01T17:18:19.222Z,47.19
2019-06-01T17:20:50.147Z,44.46
2019-06-01T17:23:26.820Z,42.10
2019-06-01T17:25:48.803Z,45.05
2019-06-01T17:28:17.458Z,43.27
2019-06-01T17:30:45.984Z,46.51
2019-06-01T17:33:16.051Z,45.59
2019-06-01T17:35:44.454Z,47.12
2019-06-01T17:38:13.070Z,47.12
2019-06-01T17:40:43.305Z,46.54
2019-06-01T17:43:13.186Z,46.43
2019-06-01T17:45:41.979Z,45.11
2019-06-01T17:48:24.692Z,45.63
2019-06-01T17:50:40.584Z,46.39
2019-06-01T17:53:09.006Z,46.91
2019-06-01T17:55:39.325Z,48.88
2019-06-01T17:58:10.016Z,46.33
2019-06-01T18:00:38.808Z,49.69
2019-06-01T18:03:07.977Z,50.98
2019-06-01T18:05:37.074Z,50.43
2019-06-01T18:08:06.423Z,50.49
2019-06-01T18:10:52.015Z,50.80
2019-06-01T18:13:08.403Z,51.05
2019-06-01T18:15:37.176Z,51.79
2019-06-01T18:18:06.602Z,51.86
2019-06-01T18:20:35.754Z,52.91
2019-06-01T18:23:07.181Z,52.25
2019-06-01T18:25:34.840Z,52.00
2019-06-01T18:28:04.526Z,53.40
2019-06-01T18:30:33.159Z,53.51
2019-06-01T18:33:02.917Z,53.08
2019-06-01T18:35:32.549Z,53.67
2019-06-01T18:38:01.049Z,53.83
2019-06-01T18:40:29.534Z,53.56
2019-06-01T18:43:00.982Z,56.77
2019-06-01T18:45:29.898Z,59.12
2019-06-01T18:47:58.733Z,58.71
2019-06-01T18:50:27.520Z,58.64
2019-06-01T18:52:56.302Z,59.35
2019-06-01T18:55:27.485Z,60.92
2019-06-01T18:57:58.074Z,62.21
2019-06-01T19:00:26.630Z,62.56
2019-06-01T19:02:55.100Z,62.62
2019-06-01T19:05:23.537Z,63.36
2019-06-01T19:07:51.940Z,63.16
2019-06-01T19:10:23.522Z,63.84
2019-06-01T19:12:51.977Z,63.75
2019-06-01T19:15:28.557Z,64.21
2019-06-01T19:17:50.911Z,65.58
2019-06-01T19:20:19.712Z,65.97
2019-06-01T19:22:48.141Z,65.84
2019-06-01T19:25:17.099Z,66.11
2019-06-01T19:27:45.717Z,66.67
2019-06-01T19:30:15.331Z,66.99
2019-06-01T19:32:43.909Z,67.08
2019-06-01T19:35:13.577Z,67.27
2019-06-01T19:37:42.988Z,67.48
2019-06-01T19:40:13.308Z,67.28
2019-06-01T19:42:41.854Z,68.28
2019-06-01T19:45:22.569Z,68.01
2019-06-01T19:47:40.584Z,68.43
2019-06-01T19:50:10.308Z,68.56
2019-06-01T19:52:38.821Z,69.02
2019-06-01T19:55:08.763Z,68.65
2019-06-01T19:57:37.728Z,69.31
2019-06-01T20:00:08.169Z,69.58
2019-06-01T20:02:36.594Z,69.71
2019-06-01T20:05:05.982Z,69.47
2019-06-01T20:07:34.478Z,70.01
2019-06-01T20:10:03.656Z,69.76
2019-06-01T20:12:32.147Z,71.11
2019-06-01T20:15:00.593Z,71.14
2019-06-01T20:17:29.126Z,70.89
2019-06-01T20:19:57.537Z,71.19
2019-06-01T20:22:25.938Z,71.46
2019-06-01T20:24:54.362Z,71.27
2019-06-01T20:27:23.007Z,71.97
2019-06-01T20:29:51.493Z,71.86
2019-06-01T20:32:20.107Z,72.36
2019-06-01T20:34:48.550Z,72.61
2019-06-01T20:37:18.080Z,72.36
2019-06-01T20:39:46.587Z,72.96
2019-06-01T20:42:23.317Z,72.63
2019-06-01T20:44:45.213Z,73.11
2019-06-01T20:47:14.798Z,72.77
2019-06-01T20:49:43.320Z,72.57
2019-06-01T20:52:12.686Z,73.30
2019-06-01T20:54:41.250Z,73.41
2019-06-01T20:57:09.676Z,72.99
2019-06-01T20:59:38.111Z,72.92
2019-06-01T21:02:06.611Z,73.30
2019-06-01T21:04:35.040Z,73.13
2019-06-01T21:07:03.517Z,72.89
2019-06-01T21:09:31.949Z,72.99
2019-06-01T21:12:00.435Z,73.32
2019-06-01T21:14:29.063Z,73.38
2019-06-01T21:16:57.458Z,73.64
2019-06-01T21:19:25.941Z,73.85
2019-06-01T21:21:54.448Z,73.43
2019-06-01T21:24:23.193Z,73.81
2019-06-01T21:26:51.599Z,74.10
2019-06-01T21:29:20.885Z,73.99
2019-06-01T21:31:49.349Z,73.65
2019-06-01T21:34:20.467Z,73.69
2019-06-01T21:36:48.015Z,75.10
2019-06-01T21:39:17.499Z,74.53
2019-06-01T21:41:46.079Z,75.19
2019-06-01T21:44:15.407Z,75.59
2019-06-01T21:46:43.905Z,75.57
2019-06-01T21:49:12.509Z,75.10
2019-06-01T21:51:40.928Z,75.12
2019-06-01T21:54:09.331Z,74.40
2019-06-01T21:56:37.793Z,74.89
2019-06-01T21:59:06.205Z,75.09
2019-06-01T22:01:34.761Z,75.30
2019-06-01T22:04:03.270Z,74.62
2019-06-01T22:06:31.943Z,74.68
2019-06-01T22:09:00.392Z,74.82
2019-06-01T22:11:28.813Z,74.13
2019-06-01T22:13:57.256Z,74.41
2019-06-01T22:16:25.850Z,74.41
2019-06-01T22:18:54.260Z,74.21
2019-06-01T22:21:23.813Z,74.74
2019-06-01T22:23:52.356Z,75.87
2019-06-01T22:26:21.921Z,75.50
2019-06-01T22:28:50.617Z,75.56
2019-06-01T22:31:20.193Z,75.67
2019-06-01T22:33:48.699Z,75.30
2019-06-01T22:36:18.427Z,75.67
2019-06-01T22:38:46.893Z,75.62
2019-06-01T22:41:15.469Z,75.87
2019-06-01T22:43:46.731Z,76.08
2019-06-01T22:46:14.091Z,75.66
2019-06-01T22:48:42.496Z,76.30
2019-06-01T22:51:10.913Z,76.31
2019-06-01T22:53:39.434Z,76.57
2019-06-01T22:56:07.883Z,76.08
2019-06-01T22:58:36.306Z,75.91
2019-06-01T23:01:04.888Z,76.07
2019-06-01T23:03:33.353Z,76.24
2019-06-01T23:06:01.750Z,75.92
2019-06-01T23:08:31.811Z,75.79
2019-06-01T23:11:00.544Z,76.33
2019-06-01T23:13:30.217Z,76.14
2019-06-01T23:15:58.774Z,76.08
2019-06-01T23:18:27.930Z,76.05
2019-06-01T23:20:56.570Z,76.50
2019-06-01T23:23:26.022Z,76.35
2019-06-01T23:25:54.496Z,76.11
2019-06-01T23:28:24.067Z,76.30
2019-06-01T23:30:52.817Z,76.94
2019-06-01T23:33:21.248Z,76.57
2019-06-01T23:35:49.826Z,76.38
2019-06-01T23:38:18.308Z,76.52
2019-06-01T23:40:46.802Z,76.92
2019-06-01T23:43:15.217Z,77.25
2019-06-01T23:45:43.639Z,76.96
2019-06-01T23:48:12.028Z,77.33
2019-06-01T23:50:40.524Z,76.85
2019-06-01T23:53:13.737Z,76.62
2019-06-01T23:55:39.127Z,76.37
2019-06-01T23:58:07.547Z,76.80
